createdAt,value
2022-11-24T00:00:51.004Z,41.19
2022-11-24T00:03:17.652Z,41.17
2022-11-24T00:05:44.422Z,41.15
2022-11-24T00:08:10.936Z,40.97
2022-11-24T00:10:37.367Z,40.90
2022-11-24T00:13:03.852Z,40.74
2022-11-24T00:15:30.260Z,40.79
2022-11-24T00:17:56.679Z,40.88
2022-11-24T00:20:23.071Z,40.79
2022-11-24T00:22:49.491Z,40.79
2022-11-24T00:25:15.891Z,40.70
2022-11-24T00:27:42.324Z,40.67
2022-11-24T00:30:09.916Z,40.75
2022-11-24T00:32:36.318Z,40.76
2022-11-24T00:35:02.727Z,40.82
2022-11-24T00:37:29.176Z,40.83
2022-11-24T00:39:55.717Z,40.72
2022-11-24T00:42:22.126Z,40.80
2022-11-24T00:44:48.573Z,40.76
2022-11-24T00:47:15.133Z,40.74
2022-11-24T00:49:41.555Z,40.61
2022-11-24T00:52:07.981Z,40.52
2022-11-24T00:54:34.651Z,40.56
2022-11-24T00:57:01.395Z,40.55
2022-11-24T00:59:27.869Z,40.74
2022-11-24T01:01:54.354Z,40.76
2022-11-24T01:04:20.962Z,40.62
2022-11-24T01:06:47.429Z,40.51
2022-11-24T01:09:13.877Z,40.59
2022-11-24T01:11:59.070Z,40.54
2022-11-24T01:14:25.633Z,40.36
2022-11-24T01:16:52.126Z,40.32
2022-11-24T01:19:18.588Z,40.46
2022-11-24T01:21:45.010Z,40.37
2022-11-24T01:24:11.974Z,40.54
2022-11-24T01:26:38.502Z,40.71
2022-11-24T01:29:05.073Z,40.61
2022-11-24T01:31:32.851Z,40.74
2022-11-24T01:33:59.261Z,40.66
2022-11-24T01:36:25.765Z,40.75
2022-11-24T01:38:52.257Z,40.67
2022-11-24T01:41:23.182Z,40.62
2022-11-24T01:43:50.172Z,40.57
2022-11-24T01:46:16.676Z,40.59
2022-11-24T01:48:45.616Z,40.56
2022-11-24T01:51:17.374Z,40.48
2022-11-24T01:53:45.742Z,40.49
2022-11-24T01:56:13.077Z,40.41
2022-11-24T01:58:40.298Z,40.26
2022-11-24T02:01:06.868Z,40.42
2022-11-24T02:03:34.641Z,40.46
2022-11-24T02:06:03.473Z,40.40
2022-11-24T02:08:29.875Z,40.44
2022-11-24T02:10:56.734Z,40.35
2022-11-24T02:13:23.565Z,40.53
2022-11-24T02:15:50.072Z,40.73
2022-11-24T02:18:16.489Z,40.69
2022-11-24T02:20:42.949Z,40.66
2022-11-24T02:23:20.650Z,40.62
2022-11-24T02:25:47.021Z,40.65
2022-11-24T02:28:15.752Z,40.52
2022-11-24T02:30:42.400Z,40.69
2022-11-24T02:33:10.271Z,40.41
2022-11-24T02:35:36.851Z,40.43
2022-11-24T02:38:03.304Z,41.32
2022-11-24T02:40:30.973Z,41.70
2022-11-24T02:43:04.851Z,41.60
2022-11-24T02:45:31.949Z,41.56
2022-11-24T02:47:58.468Z,41.55
2022-11-24T02:50:25.034Z,41.20
2022-11-24T02:52:51.533Z,41.13
2022-11-24T02:55:18.047Z,41.13
2022-11-24T02:57:44.513Z,41.04
2022-11-24T03:00:11.693Z,40.99
2022-11-24T03:02:38.204Z,40.80
2022-11-24T03:05:04.902Z,40.56
2022-11-24T03:07:31.356Z,40.71
2022-11-24T03:09:57.825Z,40.86
2022-11-24T03:12:24.261Z,40.94
2022-11-24T03:14:50.742Z,41.00
2022-11-24T03:17:17.193Z,40.93
2022-11-24T03:19:43.689Z,40.84
2022-11-24T03:22:11.907Z,40.99
2022-11-24T03:24:38.475Z,40.93
2022-11-24T03:27:04.923Z,41.20
2022-11-24T03:29:31.391Z,41.33
2022-11-24T03:31:58.713Z,41.29
2022-11-24T03:34:25.136Z,41.25
2022-11-24T03:36:51.565Z,41.25
2022-11-24T03:39:17.989Z,41.05
2022-11-24T03:41:44.457Z,41.17
2022-11-24T03:44:10.866Z,41.28
2022-11-24T03:46:37.430Z,41.25
2022-11-24T03:49:03.897Z,41.22
2022-11-24T03:51:30.310Z,41.10
2022-11-24T03:53:56.769Z,41.20
2022-11-24T03:56:23.189Z,41.06
2022-11-24T03:58:50.054Z,40.96
2022-11-24T04:01:16.578Z,41.00
2022-11-24T04:03:43.138Z,40.97
2022-11-24T04:06:09.823Z,40.83
2022-11-24T04:08:36.230Z,40.76
2022-11-24T04:11:02.778Z,40.76
2022-11-24T04:13:29.187Z,40.89
2022-11-24T04:15:55.688Z,40.81
2022-11-24T04:18:22.365Z,40.74
2022-11-24T04:20:50.117Z,40.81
2022-11-24T04:23:16.777Z,40.56
2022-11-24T04:25:43.771Z,40.72
2022-11-24T04:28:10.345Z,40.85
2022-11-24T04:30:38.553Z,40.83
2022-11-24T04:33:04.994Z,41.04
2022-11-24T04:35:31.429Z,40.87
2022-11-24T04:38:01.694Z,41.01
2022-11-24T04:40:28.170Z,41.06
2022-11-24T04:42:55.433Z,41.10
2022-11-24T04:45:22.515Z,41.09
2022-11-24T04:47:49.047Z,41.15
2022-11-24T04:50:15.755Z,41.04
2022-11-24T04:52:43.292Z,41.01
2022-11-24T04:55:09.807Z,41.06
2022-11-24T04:57:36.322Z,40.98
2022-11-24T05:00:04.077Z,40.78
2022-11-24T05:02:30.537Z,40.98
2022-11-24T05:04:56.964Z,41.06
2022-11-24T05:07:23.439Z,41.05
2022-11-24T05:10:08.735Z,41.05
2022-11-24T05:12:35.190Z,41.22
2022-11-24T05:15:02.366Z,41.17
2022-11-24T05:17:29.761Z,41.22
2022-11-24T05:19:56.258Z,41.16
2022-11-24T05:22:22.789Z,41.15
2022-11-24T05:24:49.253Z,40.93
2022-11-24T05:27:15.765Z,40.94
2022-11-24T05:29:42.222Z,40.96
2022-11-24T05:32:08.774Z,41.01
2022-11-24T05:34:35.515Z,41.01
2022-11-24T05:37:05.189Z,41.18
2022-11-24T05:39:35.402Z,41.28
2022-11-24T05:42:22.403Z,41.35
2022-11-24T05:44:49.184Z,41.32
2022-11-24T05:47:15.642Z,41.31
2022-11-24T05:49:42.195Z,41.18
2022-11-24T05:52:08.729Z,41.23
2022-11-24T05:54:35.338Z,41.11
2022-11-24T05:57:02.107Z,40.90
2022-11-24T05:59:28.557Z,40.80
2022-11-24T06:01:55.130Z,41.00
2022-11-24T06:04:21.665Z,41.12
2022-11-24T06:06:48.108Z,41.01
2022-11-24T06:09:14.652Z,41.18
2022-11-24T06:11:41.063Z,41.18
2022-11-24T06:14:11.083Z,41.23
2022-11-24T06:16:38.121Z,41.22
2022-11-24T06:19:04.714Z,41.31
2022-11-24T06:21:31.832Z,41.38
2022-11-24T06:23:58.428Z,41.35
2022-11-24T06:26:24.851Z,41.31
2022-11-24T06:28:51.257Z,41.46
2022-11-24T06:31:17.859Z,41.43
2022-11-24T06:33:44.526Z,41.40
2022-11-24T06:36:13.248Z,41.41
2022-11-24T06:38:39.721Z,41.46
2022-11-24T06:41:07.428Z,41.48
2022-11-24T06:43:34.612Z,41.48
2022-11-24T06:46:01.618Z,41.55
2022-11-24T06:48:28.340Z,41.57
2022-11-24T06:50:58.617Z,41.51
2022-11-24T06:53:25.058Z,41.47
2022-11-24T06:55:51.991Z,41.60
2022-11-24T06:58:18.420Z,41.62
2022-11-24T07:00:44.951Z,41.47
2022-11-24T07:03:14.216Z,41.49
2022-11-24T07:05:40.737Z,41.56
2022-11-24T07:08:07.156Z,41.39
2022-11-24T07:10:33.694Z,41.49
2022-11-24T07:13:00.187Z,41.68
2022-11-24T07:15:28.578Z,41.59
2022-11-24T07:17:54.946Z,41.74
2022-11-24T07:20:21.337Z,41.71
2022-11-24T07:22:47.829Z,41.58
2022-11-24T07:25:14.637Z,41.62
2022-11-24T07:27:41.142Z,41.52
2022-11-24T07:30:08.446Z,41.49
2022-11-24T07:32:34.915Z,41.42
2022-11-24T07:35:01.300Z,41.60
2022-11-24T07:37:31.324Z,41.72
2022-11-24T07:39:58.432Z,42.40
2022-11-24T07:42:24.907Z,43.84
2022-11-24T07:44:51.311Z,44.10
2022-11-24T07:47:17.749Z,44.70
2022-11-24T07:49:44.174Z,45.97
2022-11-24T07:52:10.581Z,46.33
2022-11-24T07:54:37.240Z,47.44
2022-11-24T07:57:03.755Z,49.71
2022-11-24T07:59:30.249Z,48.11
2022-11-24T08:01:56.709Z,47.37
2022-11-24T08:04:23.257Z,42.83
2022-11-24T08:06:49.804Z,39.71
2022-11-24T08:09:16.258Z,42.12
2022-11-24T08:11:42.743Z,48.22
2022-11-24T08:14:09.206Z,49.34
2022-11-24T08:16:35.756Z,49.17
2022-11-24T08:19:02.301Z,48.35
2022-11-24T08:21:28.925Z,46.62
2022-11-24T08:23:56.476Z,46.20
2022-11-24T08:26:24.780Z,46.08
2022-11-24T08:28:54.333Z,45.95
2022-11-24T08:31:21.023Z,45.92
2022-11-24T08:33:47.825Z,45.82
2022-11-24T08:36:16.059Z,45.76
2022-11-24T08:38:42.971Z,45.60
2022-11-24T08:41:10.920Z,45.48
2022-11-24T08:43:37.659Z,45.36
2022-11-24T08:46:06.367Z,45.26
2022-11-24T08:48:33.092Z,45.22
2022-11-24T08:51:05.613Z,45.14
2022-11-24T08:53:32.039Z,44.98
2022-11-24T08:56:02.018Z,45.01
2022-11-24T08:58:29.321Z,44.90
2022-11-24T09:00:56.639Z,44.91
2022-11-24T09:03:23.090Z,44.72
2022-11-24T09:05:52.050Z,44.63
2022-11-24T09:08:19.190Z,44.61
2022-11-24T09:10:45.757Z,44.66
2022-11-24T09:13:12.383Z,44.53
2022-11-24T09:15:38.894Z,44.41
2022-11-24T09:18:05.498Z,44.44
2022-11-24T09:20:31.926Z,44.45
2022-11-24T09:22:58.459Z,44.27
2022-11-24T09:25:24.999Z,44.36
2022-11-24T09:27:51.759Z,44.38
2022-11-24T09:30:18.456Z,44.33
2022-11-24T09:32:44.965Z,44.23
2022-11-24T09:35:11.482Z,44.21
2022-11-24T09:37:38.119Z,44.24
2022-11-24T09:40:04.943Z,44.17
2022-11-24T09:42:53.605Z,44.14
2022-11-24T09:45:49.345Z,44.12
2022-11-24T09:48:22.622Z,44.02
2022-11-24T09:50:49.662Z,44.11
2022-11-24T09:53:19.093Z,44.11
2022-11-24T09:56:04.848Z,44.01
2022-11-24T09:58:35.611Z,43.91
2022-11-24T10:01:05.068Z,43.89
2022-11-24T10:03:33.146Z,43.91
2022-11-24T10:06:01.534Z,43.82
2022-11-24T10:08:28.007Z,43.85
2022-11-24T10:10:59.703Z,43.82
2022-11-24T10:13:46.715Z,43.83
2022-11-24T10:16:19.074Z,43.81
2022-11-24T10:18:53.366Z,43.80
2022-11-24T10:21:19.844Z,43.82
2022-11-24T10:23:49.273Z,43.79
2022-11-24T10:26:20.112Z,43.81
2022-11-24T10:28:51.733Z,43.76
2022-11-24T10:31:29.355Z,43.71
2022-11-24T10:33:58.136Z,43.66
2022-11-24T10:36:47.072Z,43.75
2022-11-24T10:39:32.412Z,43.70
2022-11-24T10:42:19.646Z,43.69
2022-11-24T10:44:46.247Z,43.77
2022-11-24T10:47:23.045Z,43.81
2022-11-24T10:49:57.874Z,43.81
2022-11-24T10:52:24.870Z,43.85
2022-11-24T10:54:59.058Z,43.69
2022-11-24T10:57:33.296Z,43.76
2022-11-24T11:00:00.520Z,43.77
2022-11-24T11:02:27.261Z,43.71
2022-11-24T11:04:53.828Z,43.73
2022-11-24T11:07:22.187Z,43.72
2022-11-24T11:09:49.039Z,43.73
2022-11-24T11:15:30.227Z,43.64
2022-11-24T11:18:01.081Z,43.65
2022-11-24T11:20:32.302Z,43.67
2022-11-24T11:23:00.406Z,43.67
2022-11-24T11:25:32.713Z,43.63
2022-11-24T11:28:19.563Z,43.64
2022-11-24T11:34:05.454Z,43.53
2022-11-24T11:36:33.696Z,43.62
2022-11-24T11:39:00.682Z,43.65
2022-11-24T11:41:32.409Z,43.59
2022-11-24T11:44:07.241Z,43.61
2022-11-24T11:46:33.808Z,43.57
2022-11-24T11:49:00.624Z,43.60
2022-11-24T11:51:27.117Z,43.55
2022-11-24T11:53:56.686Z,43.63
2022-11-24T11:56:23.148Z,43.52
2022-11-24T11:58:55.967Z,43.51
2022-11-24T12:01:37.657Z,43.53
2022-11-24T12:04:12.908Z,43.57
2022-11-24T12:06:54.737Z,43.50
2022-11-24T12:09:24.324Z,43.51
2022-11-24T12:12:09.522Z,43.52
2022-11-24T12:14:39.517Z,43.44
2022-11-24T12:17:11.881Z,43.45
2022-11-24T12:19:45.704Z,43.45
2022-11-24T12:22:15.253Z,43.45
2022-11-24T12:24:44.933Z,43.42
2022-11-24T12:27:31.709Z,43.32
2022-11-24T12:29:58.226Z,43.34
2022-11-24T12:32:43.414Z,43.37
2022-11-24T12:35:22.514Z,43.35
2022-11-24T12:37:55.139Z,43.35
2022-11-24T12:40:27.685Z,43.38
2022-11-24T12:43:06.619Z,43.34
2022-11-24T12:45:33.112Z,43.32
2022-11-24T12:48:20.811Z,43.32
2022-11-24T12:50:48.294Z,43.28
2022-11-24T12:53:14.817Z,43.31
2022-11-24T12:55:42.649Z,43.31
2022-11-24T12:58:27.606Z,43.42
2022-11-24T13:01:18.648Z,43.39
2022-11-24T13:03:58.782Z,43.31
2022-11-24T13:06:54.702Z,43.31
2022-11-24T13:09:22.378Z,43.28
2022-11-24T13:11:53.180Z,43.33
2022-11-24T13:14:30.525Z,43.40
2022-11-24T13:19:48.554Z,43.32
2022-11-24T13:22:17.331Z,43.49
2022-11-24T13:24:45.158Z,43.35
2022-11-24T13:27:27.114Z,43.32
2022-11-24T13:29:53.749Z,43.37
2022-11-24T13:32:23.076Z,43.32
2022-11-24T13:34:54.771Z,43.36
2022-11-24T13:37:34.337Z,43.44
2022-11-24T13:40:25.027Z,43.38
2022-11-24T13:42:54.543Z,43.41
2022-11-24T13:45:39.582Z,43.47
2022-11-24T13:48:22.615Z,43.49
2022-11-24T13:50:56.162Z,43.49
2022-11-24T13:53:32.041Z,43.54
2022-11-24T13:55:59.929Z,43.42
2022-11-24T13:58:29.778Z,43.56
2022-11-24T14:00:58.432Z,43.52
2022-11-24T14:03:34.378Z,43.62
2022-11-24T14:06:01.733Z,43.60
2022-11-24T14:08:36.442Z,43.64
2022-11-24T14:11:03.495Z,43.58
2022-11-24T14:13:31.762Z,43.65
2022-11-24T14:16:01.297Z,43.61
2022-11-24T14:18:31.715Z,43.56
2022-11-24T14:20:58.788Z,43.56
2022-11-24T14:23:25.313Z,43.56
2022-11-24T14:25:52.556Z,43.60
2022-11-24T14:28:26.558Z,43.59
2022-11-24T14:31:09.637Z,43.62
2022-11-24T14:33:38.285Z,43.63
2022-11-24T14:36:04.923Z,43.63
2022-11-24T14:38:31.457Z,43.62
2022-11-24T14:41:13.359Z,43.74
2022-11-24T14:43:39.813Z,43.55
2022-11-24T14:46:09.783Z,43.61
2022-11-24T14:48:37.417Z,43.61
2022-11-24T14:51:15.273Z,43.64
2022-11-24T14:53:45.431Z,43.57
2022-11-24T14:56:32.881Z,43.62
2022-11-24T14:58:59.490Z,43.65
2022-11-24T15:01:29.191Z,43.58
2022-11-24T15:04:13.067Z,43.54
2022-11-24T15:07:01.599Z,43.57
2022-11-24T15:09:43.031Z,43.62
2022-11-24T15:12:18.424Z,43.62
2022-11-24T15:15:14.417Z,43.79
2022-11-24T15:17:51.815Z,43.70
2022-11-24T15:20:24.202Z,43.66
2022-11-24T15:22:52.477Z,43.66
2022-11-24T15:25:26.283Z,43.62
2022-11-24T15:27:53.222Z,43.65
2022-11-24T15:30:19.806Z,43.64
2022-11-24T15:32:50.156Z,43.67
2022-11-24T15:35:16.649Z,43.74
2022-11-24T15:37:43.059Z,43.63
2022-11-24T15:40:10.734Z,43.65
2022-11-24T15:42:37.177Z,43.77
2022-11-24T15:45:03.761Z,43.67
2022-11-24T15:47:30.203Z,43.73
2022-11-24T15:49:56.701Z,43.66
2022-11-24T15:52:23.183Z,43.73
2022-11-24T15:54:52.819Z,43.79
2022-11-24T15:57:21.708Z,43.81
2022-11-24T15:59:48.117Z,43.76
2022-11-24T16:02:14.658Z,43.75
2022-11-24T16:04:41.714Z,43.75
2022-11-24T16:07:14.258Z,43.80
2022-11-24T16:09:41.108Z,43.79
2022-11-24T16:12:10.751Z,43.73
2022-11-24T16:14:37.642Z,43.77
2022-11-24T16:17:04.449Z,43.79
2022-11-24T16:19:30.923Z,43.84
2022-11-24T16:21:57.422Z,43.76
2022-11-24T16:24:23.939Z,43.80
2022-11-24T16:26:50.378Z,43.80
2022-11-24T16:29:16.913Z,43.74
2022-11-24T16:31:44.499Z,43.54
2022-11-24T16:34:11.057Z,43.91
2022-11-24T16:36:37.546Z,43.83
2022-11-24T16:39:04.047Z,43.73
2022-11-24T16:41:30.570Z,43.73
2022-11-24T16:43:59.546Z,43.75
2022-11-24T16:46:26.030Z,43.71
2022-11-24T16:48:53.717Z,44.28
2022-11-24T16:51:21.869Z,45.49
2022-11-24T16:53:48.933Z,47.10
2022-11-24T16:56:17.481Z,47.72
2022-11-24T16:58:44.022Z,47.83
2022-11-24T17:01:11.674Z,47.69
2022-11-24T17:03:38.397Z,48.12
2022-11-24T17:06:05.891Z,48.44
2022-11-24T17:08:33.042Z,48.48
2022-11-24T17:11:08.347Z,48.59
2022-11-24T17:13:34.809Z,48.56
2022-11-24T17:16:08.284Z,48.22
2022-11-24T17:18:35.385Z,47.50
2022-11-24T17:21:07.630Z,47.14
2022-11-24T17:23:35.804Z,46.99
2022-11-24T17:26:03.242Z,46.73
2022-11-24T17:28:29.981Z,46.66
2022-11-24T17:30:56.914Z,46.95
2022-11-24T17:33:23.498Z,46.78
2022-11-24T17:35:49.949Z,46.80
2022-11-24T17:38:16.470Z,46.77
2022-11-24T17:40:48.869Z,46.80
2022-11-24T17:43:15.408Z,46.90
2022-11-24T17:45:41.933Z,46.79
2022-11-24T17:48:08.464Z,46.90
2022-11-24T17:50:34.965Z,46.88
2022-11-24T17:53:01.492Z,46.71
2022-11-24T17:55:27.921Z,46.92
2022-11-24T17:57:55.585Z,46.79
2022-11-24T18:00:22.313Z,46.69
2022-11-24T18:02:48.769Z,46.71
2022-11-24T18:05:15.195Z,46.63
2022-11-24T18:07:41.820Z,46.72
2022-11-24T18:10:08.663Z,46.70
2022-11-24T18:12:35.189Z,46.68
2022-11-24T18:15:01.592Z,46.69
2022-11-24T18:17:29.352Z,46.70
2022-11-24T18:19:56.044Z,46.77
2022-11-24T18:22:43.034Z,46.79
2022-11-24T18:25:09.573Z,46.70
2022-11-24T18:27:35.986Z,46.69
2022-11-24T18:30:02.526Z,46.67
2022-11-24T18:32:28.965Z,46.75
2022-11-24T18:34:55.498Z,46.72
2022-11-24T18:37:21.946Z,46.71
2022-11-24T18:39:48.410Z,46.60
2022-11-24T18:42:15.253Z,46.71
2022-11-24T18:44:42.442Z,46.59
2022-11-24T18:47:09.021Z,46.68
2022-11-24T18:49:35.465Z,46.71
2022-11-24T18:52:01.958Z,46.66
2022-11-24T18:54:28.469Z,46.64
2022-11-24T18:56:58.900Z,46.66
2022-11-24T18:59:28.359Z,46.63
2022-11-24T19:01:56.033Z,46.66
2022-11-24T19:04:24.009Z,46.68
2022-11-24T19:06:50.471Z,46.78
2022-11-24T19:09:18.679Z,46.63
2022-11-24T19:11:46.278Z,46.75
2022-11-24T19:14:13.949Z,46.66
2022-11-24T19:16:40.893Z,46.61
2022-11-24T19:19:08.075Z,46.53
2022-11-24T19:21:37.249Z,46.62
2022-11-24T19:24:05.697Z,46.53
2022-11-24T19:26:32.808Z,46.61
2022-11-24T19:28:59.354Z,46.52
2022-11-24T19:31:25.826Z,46.51
2022-11-24T19:33:54.559Z,46.52
2022-11-24T19:36:22.566Z,46.56
2022-11-24T19:38:53.234Z,46.68
2022-11-24T19:41:20.893Z,46.66
2022-11-24T19:43:48.238Z,46.60
2022-11-24T19:46:16.263Z,46.52
2022-11-24T19:48:44.067Z,46.51
2022-11-24T19:51:12.161Z,46.62
2022-11-24T19:53:38.674Z,46.54
2022-11-24T19:56:09.505Z,46.57
2022-11-24T19:58:36.595Z,46.69
2022-11-24T20:01:07.030Z,46.61
2022-11-24T20:03:33.834Z,46.67
2022-11-24T20:06:00.289Z,46.58
2022-11-24T20:08:30.633Z,46.59
2022-11-24T20:11:16.504Z,46.68
2022-11-24T20:13:44.483Z,46.55
2022-11-24T20:16:12.732Z,46.51
2022-11-24T20:18:42.432Z,46.62
2022-11-24T20:21:10.085Z,46.53
2022-11-24T20:23:36.501Z,46.47
2022-11-24T20:26:05.707Z,46.50
2022-11-24T20:28:32.405Z,46.50
2022-11-24T20:31:05.924Z,46.56
2022-11-24T20:33:32.455Z,46.56
2022-11-24T20:36:05.609Z,46.45
2022-11-24T20:38:32.307Z,46.58
2022-11-24T20:41:08.981Z,46.51
2022-11-24T20:43:36.304Z,46.52
2022-11-24T20:46:04.093Z,46.45
2022-11-24T20:48:30.926Z,46.47
2022-11-24T20:51:02.368Z,46.51
2022-11-24T20:53:28.797Z,46.53
2022-11-24T20:56:06.350Z,46.51
2022-11-24T20:58:33.794Z,46.59
2022-11-24T21:01:07.315Z,46.57
2022-11-24T21:03:39.676Z,46.51
2022-11-24T21:06:09.443Z,46.51
2022-11-24T21:08:36.769Z,46.58
2022-11-24T21:11:03.851Z,46.51
2022-11-24T21:13:32.590Z,46.60
2022-11-24T21:15:59.236Z,46.51
2022-11-24T21:18:25.763Z,46.60
2022-11-24T21:20:52.177Z,46.43
2022-11-24T21:23:20.582Z,46.38
2022-11-24T21:25:47.061Z,46.39
2022-11-24T21:28:13.570Z,46.34
2022-11-24T21:30:40.148Z,46.33
2022-11-24T21:33:07.345Z,46.24
2022-11-24T21:35:34.757Z,46.15
2022-11-24T21:38:01.170Z,46.17
2022-11-24T21:40:27.665Z,46.09
2022-11-24T21:42:54.144Z,46.15
2022-11-24T21:45:20.667Z,46.01
2022-11-24T21:47:47.352Z,45.98
2022-11-24T21:50:13.756Z,46.04
2022-11-24T21:52:40.217Z,45.98
2022-11-24T21:55:07.124Z,45.89
2022-11-24T21:57:33.596Z,45.90
2022-11-24T22:00:00.449Z,45.91
2022-11-24T22:02:27.043Z,45.87
2022-11-24T22:04:53.609Z,45.76
2022-11-24T22:07:20.092Z,45.83
2022-11-24T22:09:46.748Z,45.83
2022-11-24T22:12:13.201Z,45.73
2022-11-24T22:14:40.664Z,45.71
2022-11-24T22:17:07.574Z,45.67
2022-11-24T22:19:34.118Z,45.77
2022-11-24T22:22:00.604Z,45.77
2022-11-24T22:24:27.576Z,45.76
2022-11-24T22:26:54.783Z,45.70
2022-11-24T22:29:21.363Z,45.68
2022-11-24T22:31:47.956Z,45.74
2022-11-24T22:34:14.567Z,45.77
2022-11-24T22:36:41.074Z,45.77
2022-11-24T22:39:10.973Z,45.78
2022-11-24T22:41:37.666Z,45.75
2022-11-24T22:44:04.830Z,45.69
2022-11-24T22:46:32.008Z,45.81
2022-11-24T22:48:59.638Z,45.71
2022-11-24T22:51:27.359Z,45.76
2022-11-24T22:53:55.087Z,45.74
2022-11-24T22:56:22.031Z,45.77
2022-11-24T22:58:50.853Z,45.63
2022-11-24T23:01:19.362Z,45.71
2022-11-24T23:03:45.940Z,45.87
2022-11-24T23:06:16.649Z,45.99
2022-11-24T23:08:43.286Z,45.77
2022-11-24T23:11:09.669Z,45.49
2022-11-24T23:13:36.546Z,45.27
2022-11-24T23:16:04.638Z,45.05
2022-11-24T23:18:31.514Z,44.88
2022-11-24T23:21:04.138Z,44.82
2022-11-24T23:23:30.555Z,44.63
2022-11-24T23:25:59.458Z,44.60
2022-11-24T23:28:25.909Z,44.62
2022-11-24T23:30:52.474Z,44.50
2022-11-24T23:33:19.021Z,44.50
2022-11-24T23:35:45.457Z,44.43
2022-11-24T23:38:11.972Z,44.55
2022-11-24T23:40:38.449Z,44.48
2022-11-24T23:43:04.909Z,44.28
2022-11-24T23:45:32.034Z,44.35
2022-11-24T23:47:58.549Z,44.33
2022-11-24T23:50:25.156Z,44.26
2022-11-24T23:52:51.651Z,44.20
2022-11-24T23:55:19.083Z,44.22
2022-11-24T23:57:45.551Z,44.08
